createdAt,value
2023-04-23T00:02:02.688Z,78.80
2023-04-23T00:04:33.920Z,78.80
2023-04-23T00:07:02.435Z,78.90
2023-04-23T00:09:31.788Z,79.00
2023-04-23T00:11:59.765Z,79.10
2023-04-23T00:14:26.785Z,79.10
2023-04-23T00:16:53.688Z,79.30
2023-04-23T00:19:20.925Z,79.30
2023-04-23T00:21:47.535Z,79.50
2023-04-23T00:24:14.167Z,79.60
2023-04-23T00:26:40.784Z,79.60
2023-04-23T00:29:07.409Z,79.80
2023-04-23T00:31:34.109Z,79.60
2023-04-23T00:34:00.869Z,79.60
2023-04-23T00:36:27.488Z,79.60
2023-04-23T00:38:54.156Z,79.60
2023-04-23T00:41:21.095Z,79.60
2023-04-23T00:43:49.244Z,79.70
2023-04-23T00:46:17.574Z,79.70
2023-04-23T00:48:46.233Z,79.70
2023-04-23T00:51:12.873Z,79.70
2023-04-23T00:53:39.451Z,79.90
2023-04-23T00:56:06.881Z,80.00
2023-04-23T00:58:33.981Z,79.90
2023-04-23T01:01:02.801Z,79.90
2023-04-23T01:03:31.610Z,79.80
2023-04-23T01:05:59.482Z,79.80
2023-04-23T01:08:26.293Z,79.90
2023-04-23T01:10:53.784Z,79.90
2023-04-23T01:13:22.404Z,79.80
2023-04-23T01:15:49.567Z,79.80
2023-04-23T01:18:16.394Z,79.90
2023-04-23T01:20:43.781Z,79.80
2023-04-23T01:23:10.903Z,79.90
2023-04-23T01:25:37.839Z,80.60
2023-04-23T01:28:06.530Z,79.90
2023-04-23T01:30:33.740Z,80.00
2023-04-23T01:33:01.207Z,80.00
2023-04-23T01:35:29.804Z,80.00
2023-04-23T01:37:58.640Z,80.00
2023-04-23T01:40:25.294Z,80.10
2023-04-23T01:42:52.075Z,80.10
2023-04-23T01:45:22.041Z,80.00
2023-04-23T01:47:49.012Z,80.10
2023-04-23T01:50:15.863Z,80.20
2023-04-23T01:52:44.729Z,80.20
2023-04-23T01:55:12.069Z,80.20
2023-04-23T01:57:38.789Z,80.90
2023-04-23T02:00:11.220Z,80.30
2023-04-23T02:02:39.874Z,80.40
2023-04-23T02:05:12.193Z,80.50
2023-04-23T02:07:39.280Z,80.70
2023-04-23T02:10:06.814Z,80.80
2023-04-23T02:12:33.602Z,80.80
2023-04-23T02:15:00.303Z,80.90
2023-04-23T02:17:28.281Z,80.80
2023-04-23T02:19:56.074Z,80.80
2023-04-23T02:22:25.051Z,80.80
2023-04-23T02:24:52.864Z,80.80
2023-04-23T02:27:20.237Z,80.80
2023-04-23T02:29:47.948Z,80.90
2023-04-23T02:32:14.758Z,80.90
2023-04-23T02:34:41.733Z,80.90
2023-04-23T02:37:08.700Z,80.90
2023-04-23T02:39:35.410Z,80.90
2023-04-23T02:42:02.113Z,80.90
2023-04-23T02:44:28.706Z,80.90
2023-04-23T02:46:56.163Z,80.90
2023-04-23T02:49:22.886Z,80.90
2023-04-23T02:51:49.523Z,80.80
2023-04-23T02:54:16.318Z,80.80
2023-04-23T02:56:42.930Z,80.80
2023-04-23T02:59:10.324Z,80.70
2023-04-23T03:01:36.968Z,80.70
2023-04-23T03:04:04.460Z,80.70
2023-04-23T03:06:33.901Z,80.70
2023-04-23T03:09:00.932Z,80.70
2023-04-23T03:11:27.607Z,80.70
2023-04-23T03:13:54.272Z,80.80
2023-04-23T03:16:21.087Z,80.80
2023-04-23T03:18:47.839Z,80.80
2023-04-23T03:21:14.455Z,80.80
2023-04-23T03:23:41.379Z,80.90
2023-04-23T03:26:07.961Z,81.10
2023-04-23T03:28:34.568Z,81.00
2023-04-23T03:31:01.272Z,81.10
2023-04-23T03:33:28.014Z,81.10
2023-04-23T03:35:54.857Z,81.20
2023-04-23T03:38:21.482Z,81.30
2023-04-23T03:40:48.216Z,81.40
2023-04-23T03:43:14.886Z,81.40
2023-04-23T03:45:41.565Z,81.40
2023-04-23T03:48:08.262Z,81.50
2023-04-23T03:50:38.823Z,81.30
2023-04-23T03:53:08.098Z,81.40
2023-04-23T03:55:34.739Z,81.20
2023-04-23T03:58:03.088Z,81.30
2023-04-23T04:00:29.715Z,81.20
2023-04-23T04:02:56.422Z,81.20
2023-04-23T04:05:23.518Z,81.10
2023-04-23T04:07:50.198Z,81.10
2023-04-23T04:10:16.818Z,81.10
2023-04-23T04:12:45.524Z,81.00
2023-04-23T04:15:12.192Z,80.90
2023-04-23T04:17:38.924Z,81.00
2023-04-23T04:20:08.294Z,81.00
2023-04-23T04:22:34.953Z,80.90
2023-04-23T04:25:01.623Z,81.00
2023-04-23T04:27:28.267Z,80.90
2023-04-23T04:29:54.889Z,80.90
2023-04-23T04:32:22.231Z,80.80
2023-04-23T04:34:50.060Z,80.80
2023-04-23T04:37:17.010Z,80.80
2023-04-23T04:39:43.684Z,80.90
2023-04-23T04:42:10.723Z,81.00
2023-04-23T04:44:37.521Z,81.00
2023-04-23T04:47:05.256Z,81.00
2023-04-23T04:49:32.112Z,81.00
2023-04-23T04:51:58.672Z,81.00
2023-04-23T04:54:25.352Z,81.10
2023-04-23T04:56:51.973Z,81.00
2023-04-23T04:59:18.715Z,81.10
2023-04-23T05:01:45.650Z,81.20
2023-04-23T05:04:12.490Z,81.30
2023-04-23T05:06:39.221Z,81.50
2023-04-23T05:09:05.937Z,81.30
2023-04-23T05:11:32.693Z,81.30
2023-04-23T05:13:59.336Z,81.30
2023-04-23T05:16:26.201Z,81.30
2023-04-23T05:18:52.857Z,81.20
2023-04-23T05:21:19.759Z,81.30
2023-04-23T05:23:46.445Z,81.30
2023-04-23T05:26:13.175Z,81.30
2023-04-23T05:28:39.907Z,81.40
2023-04-23T05:31:06.560Z,81.40
2023-04-23T05:33:36.436Z,81.50
2023-04-23T05:36:09.369Z,81.60
2023-04-23T05:38:36.131Z,81.60
2023-04-23T05:41:02.958Z,81.60
2023-04-23T05:43:29.620Z,81.80
2023-04-23T05:45:56.366Z,81.90
2023-04-23T05:48:23.128Z,82.00
2023-04-23T05:50:49.714Z,82.10
2023-04-23T05:53:16.407Z,82.30
2023-04-23T05:55:43.620Z,82.30
2023-04-23T05:58:10.250Z,82.30
2023-04-23T06:00:37.495Z,82.30
2023-04-23T06:03:04.230Z,82.40
2023-04-23T06:05:30.951Z,82.50
2023-04-23T06:07:58.177Z,82.50
2023-04-23T06:10:25.033Z,82.70
2023-04-23T06:12:54.023Z,82.90
2023-04-23T06:15:20.848Z,82.80
2023-04-23T06:17:47.541Z,83.10
2023-04-23T06:20:14.307Z,83.00
2023-04-23T06:22:40.961Z,83.30
2023-04-23T06:25:08.346Z,82.90
2023-04-23T06:27:34.966Z,82.40
2023-04-23T06:30:01.592Z,82.20
2023-04-23T06:32:28.261Z,82.10
2023-04-23T06:35:01.508Z,82.10
2023-04-23T06:37:30.642Z,82.10
2023-04-23T06:39:58.452Z,82.30
2023-04-23T06:42:25.063Z,82.40
2023-04-23T06:44:52.150Z,82.50
2023-04-23T06:47:19.390Z,82.50
2023-04-23T06:49:46.245Z,82.50
2023-04-23T06:52:12.966Z,82.40
2023-04-23T06:54:39.882Z,82.40
2023-04-23T06:57:06.856Z,82.30
2023-04-23T06:59:33.547Z,82.30
2023-04-23T07:02:00.338Z,82.80
2023-04-23T07:04:26.964Z,82.60
2023-04-23T07:06:53.580Z,82.80
2023-04-23T07:09:20.167Z,82.60
2023-04-23T07:11:47.256Z,81.90
2023-04-23T07:14:13.854Z,82.30
2023-04-23T07:16:40.481Z,80.70
2023-04-23T07:19:07.042Z,80.60
2023-04-23T07:21:33.738Z,80.60
2023-04-23T07:24:00.836Z,80.50
2023-04-23T07:26:27.907Z,80.40
2023-04-23T07:28:54.756Z,80.50
2023-04-23T07:31:22.269Z,80.40
2023-04-23T07:33:48.947Z,80.50
2023-04-23T07:36:15.952Z,80.10
2023-04-23T07:38:43.284Z,79.90
2023-04-23T07:41:09.955Z,79.80
2023-04-23T07:43:36.650Z,79.80
2023-04-23T07:46:03.424Z,79.80
2023-04-23T07:48:30.130Z,79.00
2023-04-23T07:50:57.017Z,78.60
2023-04-23T07:53:23.695Z,78.40
2023-04-23T07:55:50.302Z,77.80
2023-04-23T07:58:17.245Z,77.40
2023-04-23T08:00:43.877Z,76.80
2023-04-23T08:03:10.603Z,76.00
2023-04-23T08:05:39.062Z,75.00
2023-04-23T08:08:05.821Z,74.70
2023-04-23T08:10:32.547Z,74.60
2023-04-23T08:12:59.198Z,74.70
2023-04-23T08:15:25.835Z,74.30
2023-04-23T08:17:52.575Z,74.10
2023-04-23T08:20:19.288Z,74.40
2023-04-23T08:22:45.895Z,74.40
2023-04-23T08:25:15.218Z,74.50
2023-04-23T08:27:41.813Z,73.70
2023-04-23T08:30:09.462Z,72.60
2023-04-23T08:32:36.238Z,71.00
2023-04-23T08:35:02.934Z,69.80
2023-04-23T08:37:31.146Z,69.40
2023-04-23T08:39:58.444Z,69.80
2023-04-23T08:42:50.858Z,69.80
2023-04-23T08:45:18.164Z,68.30
2023-04-23T08:47:45.252Z,68.50
2023-04-23T08:50:14.084Z,67.70
2023-04-23T08:52:45.425Z,66.60
2023-04-23T08:55:15.050Z,66.50
2023-04-23T08:57:42.397Z,63.60
2023-04-23T09:00:11.648Z,63.90
2023-04-23T09:02:41.563Z,62.90
2023-04-23T09:05:09.099Z,62.50
2023-04-23T09:07:36.590Z,63.20
2023-04-23T09:10:05.053Z,62.70
2023-04-23T09:12:32.185Z,60.90
2023-04-23T09:14:58.864Z,60.00
2023-04-23T09:17:29.468Z,59.80
2023-04-23T09:19:56.234Z,59.20
2023-04-23T09:22:43.680Z,58.20
2023-04-23T09:25:13.656Z,57.50
2023-04-23T09:27:41.160Z,57.60
2023-04-23T09:30:10.837Z,56.90
2023-04-23T09:32:40.919Z,56.30
2023-04-23T09:35:10.526Z,56.40
2023-04-23T09:37:37.203Z,55.20
2023-04-23T09:40:08.488Z,55.30
2023-04-23T09:42:35.941Z,56.50
2023-04-23T09:45:08.057Z,55.10
2023-04-23T09:47:38.278Z,53.80
2023-04-23T09:50:05.711Z,54.00
2023-04-23T09:52:33.931Z,53.20
2023-04-23T09:55:08.005Z,54.90
2023-04-23T09:57:38.913Z,54.30
2023-04-23T10:00:21.268Z,54.90
2023-04-23T10:02:49.960Z,55.10
2023-04-23T10:05:24.430Z,55.50
2023-04-23T10:07:53.083Z,54.60
2023-04-23T10:10:20.639Z,53.60
2023-04-23T10:12:54.885Z,52.30
2023-04-23T10:15:25.345Z,52.00
2023-04-23T10:17:52.590Z,52.20
2023-04-23T10:20:22.011Z,53.20
2023-04-23T10:22:49.624Z,54.30
2023-04-23T10:25:17.772Z,54.20
2023-04-23T10:27:53.222Z,51.20
2023-04-23T10:30:21.935Z,49.50
2023-04-23T10:32:49.612Z,50.40
2023-04-23T10:35:16.505Z,50.10
2023-04-23T10:37:45.748Z,49.30
2023-04-23T10:40:15.034Z,49.40
2023-04-23T10:42:43.445Z,50.20
2023-04-23T10:47:47.518Z,49.50
2023-04-23T10:50:23.400Z,51.40
2023-04-23T10:52:57.369Z,50.70
2023-04-23T10:55:27.474Z,51.50
2023-04-23T10:58:01.187Z,51.70
2023-04-23T11:00:41.704Z,51.80
2023-04-23T11:03:27.469Z,51.70
2023-04-23T11:05:54.571Z,51.70
2023-04-23T11:08:21.174Z,52.40
2023-04-23T11:11:01.310Z,52.30
2023-04-23T11:13:29.439Z,52.10
2023-04-23T11:16:21.584Z,52.50
2023-04-23T11:18:59.702Z,51.00
2023-04-23T11:22:01.412Z,50.90
2023-04-23T11:24:43.369Z,49.40
2023-04-23T11:27:15.417Z,50.00
2023-04-23T11:29:46.417Z,50.20
2023-04-23T11:32:16.088Z,49.00
2023-04-23T11:34:44.885Z,49.00
2023-04-23T11:37:12.565Z,49.00
2023-04-23T11:39:41.252Z,49.80
2023-04-23T11:42:20.064Z,50.10
2023-04-23T11:44:47.702Z,50.20
2023-04-23T11:47:18.941Z,49.70
2023-04-23T11:49:45.984Z,49.30
2023-04-23T11:52:14.340Z,49.80
2023-04-23T11:54:42.096Z,49.90
2023-04-23T11:57:10.065Z,49.30
2023-04-23T11:59:37.257Z,49.70
2023-04-23T12:02:03.953Z,50.10
2023-04-23T12:04:32.005Z,49.50
2023-04-23T12:06:59.702Z,49.30
2023-04-23T12:09:29.635Z,49.90
2023-04-23T12:11:58.321Z,49.50
2023-04-23T12:14:30.378Z,49.40
2023-04-23T12:16:58.969Z,49.00
2023-04-23T12:19:31.096Z,49.40
2023-04-23T12:22:00.249Z,49.50
2023-04-23T12:24:32.061Z,49.70
2023-04-23T12:27:02.722Z,50.30
2023-04-23T12:29:30.783Z,50.00
2023-04-23T12:31:59.587Z,50.30
2023-04-23T12:34:26.264Z,49.30
2023-04-23T12:36:55.695Z,49.00
2023-04-23T12:39:24.099Z,49.40
2023-04-23T12:41:52.959Z,49.10
2023-04-23T12:44:20.502Z,48.70
2023-04-23T12:46:57.229Z,49.00
2023-04-23T12:49:25.030Z,49.30
2023-04-23T12:51:52.567Z,49.30
2023-04-23T12:54:19.588Z,49.00
2023-04-23T12:56:46.309Z,49.40
2023-04-23T12:59:12.976Z,49.20
2023-04-23T13:01:39.731Z,49.10
2023-04-23T13:04:06.523Z,48.10
2023-04-23T13:06:33.358Z,48.90
2023-04-23T13:09:02.220Z,49.00
2023-04-23T13:11:29.140Z,47.80
2023-04-23T13:13:55.714Z,47.60
2023-04-23T13:16:22.401Z,47.60
2023-04-23T13:18:51.411Z,48.30
2023-04-23T13:21:18.512Z,48.30
2023-04-23T13:23:45.324Z,48.00
2023-04-23T13:26:12.285Z,48.40
2023-04-23T13:28:39.188Z,48.60
2023-04-23T13:31:06.525Z,48.90
2023-04-23T13:33:33.797Z,49.00
2023-04-23T13:36:02.222Z,49.00
2023-04-23T13:38:30.104Z,49.40
2023-04-23T13:40:57.113Z,50.00
2023-04-23T13:43:23.796Z,49.80
2023-04-23T13:45:50.739Z,50.30
2023-04-23T13:48:18.352Z,50.40
2023-04-23T13:50:45.480Z,50.80
2023-04-23T13:53:13.413Z,51.60
2023-04-23T13:55:40.100Z,50.60
2023-04-23T13:58:07.410Z,50.30
2023-04-23T14:00:34.227Z,50.20
2023-04-23T14:03:01.054Z,49.70
2023-04-23T14:05:27.815Z,50.10
2023-04-23T14:07:54.564Z,50.10
2023-04-23T14:10:21.325Z,50.30
2023-04-23T14:12:48.950Z,50.50
2023-04-23T14:15:15.756Z,49.70
2023-04-23T14:17:44.126Z,50.00
2023-04-23T14:20:11.306Z,50.30
2023-04-23T14:22:38.228Z,50.70
2023-04-23T14:25:10.112Z,50.80
2023-04-23T14:27:44.422Z,50.40
2023-04-23T14:30:16.949Z,50.40
2023-04-23T14:32:43.806Z,50.50
2023-04-23T14:35:10.605Z,50.90
2023-04-23T14:37:37.328Z,51.50
2023-04-23T14:40:06.528Z,51.90
2023-04-23T14:42:33.618Z,52.10
2023-04-23T14:45:02.303Z,52.40
2023-04-23T14:47:28.968Z,52.40
2023-04-23T14:49:57.481Z,52.40
2023-04-23T14:52:24.305Z,52.90
2023-04-23T14:54:51.015Z,53.60
2023-04-23T14:57:17.796Z,54.30
2023-04-23T14:59:44.590Z,54.60
2023-04-23T15:02:12.153Z,54.90
2023-04-23T15:04:39.091Z,56.10
2023-04-23T15:07:05.777Z,57.70
2023-04-23T15:09:32.475Z,59.10
2023-04-23T15:11:59.064Z,60.10
2023-04-23T15:14:31.890Z,60.80
2023-04-23T15:16:58.666Z,62.30
2023-04-23T15:19:25.347Z,62.90
2023-04-23T15:21:51.967Z,63.90
2023-04-23T15:24:18.759Z,64.80
2023-04-23T15:26:46.282Z,65.30
2023-04-23T15:29:13.596Z,65.90
2023-04-23T15:31:40.793Z,66.40
2023-04-23T15:34:09.262Z,67.00
2023-04-23T15:36:39.266Z,67.30
2023-04-23T15:39:09.322Z,67.60
2023-04-23T15:41:39.492Z,67.70
2023-04-23T15:44:11.473Z,68.00
2023-04-23T15:46:38.047Z,68.20
2023-04-23T15:49:05.582Z,68.50
2023-04-23T15:51:32.857Z,68.80
2023-04-23T15:54:00.619Z,69.20
2023-04-23T15:56:27.200Z,69.50
2023-04-23T15:58:53.849Z,69.50
2023-04-23T16:01:20.676Z,69.70
2023-04-23T16:04:01.830Z,69.90
2023-04-23T16:06:34.026Z,70.20
2023-04-23T16:09:02.175Z,70.30
2023-04-23T16:11:28.822Z,70.40
2023-04-23T16:13:56.916Z,70.70
2023-04-23T16:16:23.577Z,70.80
2023-04-23T16:18:50.729Z,71.60
2023-04-23T16:21:17.434Z,70.90
2023-04-23T16:23:44.056Z,70.80
2023-04-23T16:26:11.149Z,71.00
2023-04-23T16:28:37.846Z,71.30
2023-04-23T16:31:04.565Z,71.40
2023-04-23T16:33:31.417Z,71.50
2023-04-23T16:35:59.432Z,71.60
2023-04-23T16:38:26.376Z,71.90
2023-04-23T16:40:53.079Z,72.10
2023-04-23T16:43:19.700Z,72.10
2023-04-23T16:45:46.668Z,72.20
2023-04-23T16:48:16.467Z,72.40
2023-04-23T16:50:44.148Z,72.50
2023-04-23T16:53:11.016Z,72.60
2023-04-23T16:55:38.194Z,72.60
2023-04-23T16:58:05.870Z,72.70
2023-04-23T17:00:32.601Z,72.50
2023-04-23T17:02:59.394Z,72.60
2023-04-23T17:05:26.153Z,72.80
2023-04-23T17:07:53.241Z,72.90
2023-04-23T17:10:19.895Z,72.90
2023-04-23T17:12:46.606Z,73.00
2023-04-23T17:15:13.341Z,73.00
2023-04-23T17:17:39.990Z,73.00
2023-04-23T17:20:08.265Z,73.10
2023-04-23T17:22:34.961Z,73.30
2023-04-23T17:25:01.590Z,73.40
2023-04-23T17:27:28.352Z,73.40
2023-04-23T17:29:54.951Z,73.50
2023-04-23T17:32:21.668Z,73.40
2023-04-23T17:34:56.428Z,73.40
2023-04-23T17:37:29.554Z,73.40
2023-04-23T17:39:56.104Z,73.40
2023-04-23T17:42:22.713Z,73.50
2023-04-23T17:44:49.307Z,73.50
2023-04-23T17:47:15.873Z,73.60
2023-04-23T17:49:42.667Z,73.70
2023-04-23T17:52:09.638Z,73.80
2023-04-23T17:54:36.397Z,73.80
2023-04-23T17:57:04.514Z,73.80
2023-04-23T17:59:31.188Z,73.80
2023-04-23T18:01:58.455Z,73.80
2023-04-23T18:04:25.427Z,73.80
2023-04-23T18:06:52.137Z,73.90
2023-04-23T18:09:18.763Z,73.90
2023-04-23T18:11:45.372Z,74.00
2023-04-23T18:14:12.051Z,74.10
2023-04-23T18:16:38.615Z,74.20
2023-04-23T18:19:05.425Z,74.30
2023-04-23T18:21:32.037Z,74.40
2023-04-23T18:23:58.674Z,75.30
2023-04-23T18:26:25.972Z,74.50
2023-04-23T18:28:52.607Z,74.60
2023-04-23T18:31:19.290Z,74.70
2023-04-23T18:34:09.826Z,74.80
2023-04-23T18:36:42.369Z,75.00
2023-04-23T18:39:09.066Z,74.90
2023-04-23T18:41:35.977Z,75.00
2023-04-23T18:44:02.682Z,75.20
2023-04-23T18:46:31.336Z,75.30
2023-04-23T18:49:29.421Z,75.40
2023-04-23T18:51:56.409Z,75.50
2023-04-23T18:54:25.435Z,75.40
2023-04-23T18:56:54.869Z,75.40
2023-04-23T18:59:21.487Z,76.00
2023-04-23T19:01:48.240Z,75.60
2023-04-23T19:04:15.253Z,75.80
2023-04-23T19:06:42.282Z,75.90
2023-04-23T19:09:09.108Z,76.00
2023-04-23T19:11:37.614Z,76.10
2023-04-23T19:14:07.678Z,76.10
2023-04-23T19:16:34.399Z,76.10
2023-04-23T19:19:01.192Z,76.30
2023-04-23T19:21:27.952Z,76.30
2023-04-23T19:23:54.656Z,76.40
2023-04-23T19:26:21.290Z,76.30
2023-04-23T19:28:47.846Z,76.20
2023-04-23T19:31:14.460Z,76.30
2023-04-23T19:33:45.183Z,76.40
2023-04-23T19:36:11.991Z,76.50
2023-04-23T19:38:38.643Z,76.50
2023-04-23T19:41:06.426Z,76.40
2023-04-23T19:43:33.244Z,76.40
2023-04-23T19:45:59.920Z,76.50
2023-04-23T19:48:26.749Z,76.50
2023-04-23T19:50:53.463Z,76.60
2023-04-23T19:53:20.032Z,76.70
2023-04-23T19:55:46.620Z,76.70
2023-04-23T19:58:13.275Z,77.10
2023-04-23T20:00:41.629Z,76.80
2023-04-23T20:03:08.764Z,76.80
2023-04-23T20:05:35.667Z,76.90
2023-04-23T20:08:04.437Z,76.90
2023-04-23T20:10:31.667Z,77.00
2023-04-23T20:12:59.747Z,77.00
2023-04-23T20:15:26.411Z,77.00
2023-04-23T20:17:53.256Z,77.20
2023-04-23T20:20:21.537Z,77.30
2023-04-23T20:22:48.633Z,77.30
2023-04-23T20:25:15.456Z,77.30
2023-04-23T20:27:42.061Z,77.30
2023-04-23T20:30:10.758Z,77.20
2023-04-23T20:32:37.508Z,77.40
2023-04-23T20:35:04.343Z,77.20
2023-04-23T20:37:31.200Z,77.30
2023-04-23T20:39:58.369Z,77.30
2023-04-23T20:42:25.998Z,77.30
2023-04-23T20:44:52.779Z,77.40
2023-04-23T20:47:19.420Z,77.30
2023-04-23T20:49:46.165Z,77.30
2023-04-23T20:52:14.497Z,77.30
2023-04-23T20:54:42.075Z,77.30
2023-04-23T20:57:08.733Z,77.30
2023-04-23T20:59:35.421Z,77.20
2023-04-23T21:02:02.129Z,77.30
2023-04-23T21:04:28.978Z,77.30
2023-04-23T21:06:56.104Z,77.30
2023-04-23T21:09:22.768Z,77.30
2023-04-23T21:11:50.927Z,77.40
2023-04-23T21:14:17.745Z,77.40
2023-04-23T21:16:44.378Z,77.40
2023-04-23T21:19:11.010Z,77.40
2023-04-23T21:21:37.684Z,77.40
2023-04-23T21:24:04.392Z,77.30
2023-04-23T21:26:31.864Z,77.40
2023-04-23T21:28:58.640Z,77.30
2023-04-23T21:31:54.586Z,77.30
2023-04-23T21:34:22.039Z,77.40
2023-04-23T21:36:49.089Z,77.30
2023-04-23T21:39:16.228Z,77.40
2023-04-23T21:41:44.253Z,77.30
2023-04-23T21:44:10.921Z,77.30
2023-04-23T21:46:37.577Z,77.30
2023-04-23T21:49:04.371Z,77.30
2023-04-23T21:51:31.019Z,77.20
2023-04-23T21:53:57.621Z,77.10
2023-04-23T21:56:24.241Z,77.20
2023-04-23T21:58:50.842Z,77.10
2023-04-23T22:01:18.160Z,76.90
2023-04-23T22:03:46.553Z,76.80
2023-04-23T22:06:15.567Z,76.80
2023-04-23T22:08:44.458Z,77.80
2023-04-23T22:11:11.331Z,76.80
2023-04-23T22:13:38.533Z,76.90
2023-04-23T22:16:10.826Z,77.00
2023-04-23T22:18:40.374Z,76.90
2023-04-23T22:21:07.652Z,76.80
2023-04-23T22:23:34.306Z,76.90
2023-04-23T22:26:00.911Z,77.80
2023-04-23T22:28:27.531Z,77.10
2023-04-23T22:30:54.353Z,77.20
2023-04-23T22:33:21.212Z,77.30
2023-04-23T22:35:47.852Z,77.20
2023-04-23T22:38:14.522Z,77.20
2023-04-23T22:40:41.114Z,77.20
2023-04-23T22:43:07.738Z,77.30
2023-04-23T22:45:34.729Z,77.50
2023-04-23T22:48:01.784Z,77.60
2023-04-23T22:50:30.413Z,77.60
2023-04-23T22:52:57.080Z,77.70
2023-04-23T22:55:23.807Z,77.80
2023-04-23T22:57:50.493Z,77.80
2023-04-23T23:00:17.270Z,77.80
2023-04-23T23:02:43.988Z,78.00
2023-04-23T23:05:10.946Z,78.10
2023-04-23T23:07:37.592Z,78.00
2023-04-23T23:10:08.450Z,78.20
2023-04-23T23:12:36.341Z,78.20
2023-04-23T23:15:03.579Z,78.10
2023-04-23T23:17:30.273Z,78.30
2023-04-23T23:19:56.993Z,78.20
2023-04-23T23:22:23.719Z,78.10
2023-04-23T23:24:50.439Z,78.20
2023-04-23T23:27:17.009Z,79.00
2023-04-23T23:29:43.851Z,78.30
2023-04-23T23:32:10.803Z,78.50
2023-04-23T23:34:37.420Z,78.50
2023-04-23T23:37:04.114Z,78.60
2023-04-23T23:39:30.703Z,78.60
2023-04-23T23:41:59.538Z,78.70
2023-04-23T23:44:26.525Z,78.60
2023-04-23T23:46:53.216Z,78.70
2023-04-23T23:49:20.377Z,78.70
2023-04-23T23:51:47.371Z,78.80
2023-04-23T23:54:14.075Z,78.80
2023-04-23T23:56:40.913Z,78.80
2023-04-23T23:59:07.548Z,78.90
